HomeShort term forecast

Short term forecast

Graphical weather forecast for the next 48 hours for Montreal:
Short term forecast
This weather forecast is automatically refreshed every 3 hours.

Hourly Experimental Forecast for the next 48 hours ®

Overall summary: Rain starting tomorrow morning, continuing until tomorrow afternoon.

 Date & Hour   Temp   Feel   Baro   Hum   Speed & Bearing   Wind Gust   Precip.%   Precip.   Visibility   Cloud cover   Conditions 
 21/07/2018 - 21:00  26.7°C  26.7°C  1016.8 hPa  46%  8.1 km/h   12.8 km/h  0%  --  16.1km  64%  Mostly Cloudy 
 21/07/2018 - 22:00  25.0°C  25.0°C  1017.2 hPa  51%  8.7 km/h   14.6 km/h  0%  --  16.1km  63%  Mostly Cloudy 
 21/07/2018 - 23:00  23.7°C  23.7°C  1017.3 hPa  55%  9.7 km/h   18.5 km/h  0%  --  16.1km  58%  Partly Cloudy 
 22/07/2018 - 00:00  22.7°C  22.7°C  1017.4 hPa  57%  10.8 km/h   26.0 km/h  0%  --  16.1km  71%  Mostly Cloudy 
 22/07/2018 - 01:00  21.8°C  21.8°C  1017.4 hPa  57%  10.7 km/h   26.7 km/h  0%  --  16.1km  71%  Mostly Cloudy 
 22/07/2018 - 02:00  20.9°C  20.9°C  1017.6 hPa  59%  10.7 km/h   26.8 km/h  0%  --  16.1km  68%  Mostly Cloudy 
 22/07/2018 - 03:00  19.8°C  19.8°C  1017.7 hPa  61%  10.3 km/h   25.0 km/h  0%  --  16.1km  81%  Mostly Cloudy 
 22/07/2018 - 04:00  18.9°C  18.9°C  1017.7 hPa  62%  9.4 km/h   23.4 km/h  1%  0.02 mm/h  16.1km  85%  Mostly Cloudy 
 22/07/2018 - 05:00  18.1°C  18.1°C  1017.7 hPa  63%  8.9 km/h   23.1 km/h  0%  --  16.1km  87%  Mostly Cloudy 
 22/07/2018 - 06:00  17.9°C  17.9°C  1017.7 hPa  65%  9.0 km/h   19.9 km/h  0%  --  16.1km  89%  Mostly Cloudy 
 22/07/2018 - 07:00  18.5°C  18.5°C  1017.7 hPa  66%  10.1 km/h   21.1 km/h  2%  0.04 mm/h  16.1km  92%  Mostly Cloudy 
 22/07/2018 - 08:00  19.5°C  19.5°C  1017.5 hPa  63%  12.2 km/h   24.2 km/h  6%  0.10 mm/h  16.1km  94%  Overcast 
 22/07/2018 - 09:00  20.0°C  20.0°C  1017.1 hPa  59%  14.2 km/h   28.3 km/h  15%  0.33 mm/h  16.1km  96%  Overcast 
 22/07/2018 - 10:00  19.7°C  19.7°C  1016.7 hPa  61%  16.3 km/h   30.4 km/h  23%  1.03 mm/h  16.1km  98%  Possible Light Rain 
 22/07/2018 - 11:00  18.0°C  18.0°C  1016.4 hPa  80%  20.2 km/h   36.7 km/h  59%  2.16 mm/h  16.1km  100%  Rain 
 22/07/2018 - 12:00  18.6°C  18.6°C  1016.0 hPa  82%  21.1 km/h   37.8 km/h  61%  2.04 mm/h  16.1km  100%  Rain 
 22/07/2018 - 13:00  19.8°C  19.9°C  1015.6 hPa  81%  21.8 km/h   37.9 km/h  57%  1.59 mm/h  16.0km  100%  Rain 
 22/07/2018 - 14:00  21.1°C  21.4°C  1015.3 hPa  80%  21.7 km/h   37.8 km/h  50%  1.48 mm/h  16.1km  100%  Rain 
 22/07/2018 - 15:00  22.9°C  23.3°C  1015.0 hPa  77%  21.7 km/h   37.3 km/h  46%  0.89 mm/h  16.1km  97%  Light Rain 
 22/07/2018 - 16:00  24.9°C  25.3°C  1014.6 hPa  72%  21.1 km/h   36.8 km/h  18%  0.17 mm/h  16.1km  92%  Mostly Cloudy 
 22/07/2018 - 17:00  26.1°C  26.6°C  1014.6 hPa  71%  20.4 km/h   37.0 km/h  8%  0.01 mm/h  16.1km  88%  Mostly Cloudy 
 22/07/2018 - 18:00  26.3°C  27.8°C  1014.6 hPa  72%  19.0 km/h   38.0 km/h  5%  0.01 mm/h  16.1km  87%  Mostly Cloudy 
 22/07/2018 - 19:00  25.8°C  26.4°C  1014.8 hPa  75%  17.6 km/h   39.5 km/h  1%  0.01 mm/h  16.1km  86%  Mostly Cloudy 
 22/07/2018 - 20:00  25.2°C  25.8°C  1015.1 hPa  79%  16.0 km/h   40.9 km/h  5%  0.02 mm/h  16.1km  83%  Mostly Cloudy 
 22/07/2018 - 21:00  24.3°C  25.0°C  1015.6 hPa  83%  14.6 km/h   41.6 km/h  4%  0.03 mm/h  16.1km  77%  Mostly Cloudy 
 22/07/2018 - 22:00  23.7°C  24.4°C  1016.1 hPa  85%  13.3 km/h   41.8 km/h  5%  0.07 mm/h  16.1km  65%  Mostly Cloudy 
 22/07/2018 - 23:00  23.2°C  23.9°C  1016.4 hPa  87%  12.4 km/h   41.7 km/h  6%  0.11 mm/h  16.1km  60%  Mostly Cloudy 
 23/07/2018 - 00:00  22.9°C  23.5°C  1016.6 hPa  88%  11.8 km/h   41.2 km/h  6%  0.16 mm/h  16.1km  58%  Partly Cloudy 
 23/07/2018 - 01:00  22.7°C  23.3°C  1016.7 hPa  89%  11.5 km/h   40.3 km/h  7%  0.20 mm/h  15.6km  59%  Partly Cloudy 
 23/07/2018 - 02:00  22.3°C  23.0°C  1016.7 hPa  90%  11.4 km/h   39.4 km/h  7%  0.20 mm/h  14.6km  63%  Mostly Cloudy 
 23/07/2018 - 03:00  22.0°C  22.7°C  1016.8 hPa  91%  10.9 km/h   38.5 km/h  8%  0.19 mm/h  12.8km  81%  Mostly Cloudy 
 23/07/2018 - 04:00  21.9°C  22.5°C  1016.8 hPa  92%  10.6 km/h   37.6 km/h  14%  0.34 mm/h  10.9km  91%  Mostly Cloudy 
 23/07/2018 - 05:00  22.0°C  22.7°C  1017.0 hPa  92%  10.5 km/h   36.4 km/h  17%  0.47 mm/h  10.9km  96%  Overcast 
 23/07/2018 - 06:00  22.3°C  22.9°C  1017.4 hPa  91%  10.6 km/h   34.8 km/h  11%  0.28 mm/h  14.2km  95%  Overcast 
 23/07/2018 - 07:00  23.2°C  23.9°C  1017.8 hPa  88%  11.1 km/h   32.9 km/h  3%  0.06 mm/h  16.1km  90%  Mostly Cloudy 
 23/07/2018 - 08:00  24.2°C  24.8°C  1018.1 hPa  85%  12.6 km/h   31.2 km/h  2%  0.01 mm/h  16.1km  85%  Mostly Cloudy 
 23/07/2018 - 09:00  25.3°C  26.0°C  1018.3 hPa  80%  14.7 km/h   30.1 km/h  2%  0.01 mm/h  16.1km  79%  Mostly Cloudy 
 23/07/2018 - 10:00  26.5°C  28.4°C  1018.4 hPa  76%  17.1 km/h   29.6 km/h  4%  0.04 mm/h  16.1km  73%  Mostly Cloudy 
 23/07/2018 - 11:00  27.7°C  30.3°C  1018.4 hPa  72%  18.8 km/h   29.6 km/h  6%  0.08 mm/h  16.1km  70%  Mostly Cloudy 
 23/07/2018 - 12:00  28.5°C  31.4°C  1018.3 hPa  69%  19.5 km/h   29.1 km/h  9%  0.14 mm/h  16.1km  73%  Mostly Cloudy 
 23/07/2018 - 13:00  29.6°C  32.8°C  1018.1 hPa  64%  20.3 km/h   28.6 km/h  9%  0.20 mm/h  16.1km  80%  Mostly Cloudy 
 23/07/2018 - 14:00  30.4°C  33.8°C  1017.9 hPa  61%  21.3 km/h   28.5 km/h  8%  0.28 mm/h  16.1km  85%  Mostly Cloudy 
 23/07/2018 - 15:00  30.7°C  34.2°C  1017.8 hPa  60%  22.1 km/h   28.7 km/h  8%  0.27 mm/h  16.1km  84%  Mostly Cloudy 
 23/07/2018 - 16:00  30.4°C  33.8°C  1017.6 hPa  61%  23.1 km/h   29.4 km/h  8%  0.18 mm/h  16.1km  82%  Mostly Cloudy 
 23/07/2018 - 17:00  29.8°C  33.0°C  1017.5 hPa  63%  23.0 km/h   31.3 km/h  10%  0.12 mm/h  16.1km  75%  Mostly Cloudy 
 23/07/2018 - 18:00  29.0°C  31.8°C  1017.7 hPa  65%  22.6 km/h   35.5 km/h  12%  0.06 mm/h  16.1km  81%  Mostly Cloudy 
 23/07/2018 - 19:00  28.3°C  30.8°C  1018.0 hPa  67%  21.1 km/h   40.9 km/h  16%  0.02 mm/h  16.1km  81%  Mostly Cloudy 
 23/07/2018 - 20:00  27.4°C  29.6°C  1018.4 hPa  70%  20.2 km/h   44.8 km/h  0%  --  16.1km  85%  Mostly Cloudy 
Test

 

Past weather and reports

Past weatherFind in this section the past weather conditions, weather archive, graphics, reports and statistics.

Current conditions

Current weather condition for MontrealAll you need to know about the current weather conditions for Montreal. Weather data is updated every 10 minutes.

Weather forecast

Current Montreal weatherSince 2004, celinium.com website has provided accurate weather forecast for Montreal's island.